Stratton Mountain, Vermont
Current Conditions -  °F | °C
As of 12:54 PM on Saturday 22 Nov 2014 (Local Time) from KDDH Reporting Station
Clear Clear  
Wind Chill: 31°   Ceiling: Unl
Heat Index: 37°   Visibility: 10mi
Dew Point:   Wind: 8mph
Humidity: 28%   Direction: 190°S
Pressure: 30.16"   Gusts: NA
Location:  43.11°N, 72.91°W
Report Text: KDDH 221754Z AUTO 19007KT 10SM CLR 03/M14 A3016 RMK AO2 SLP222 I1000 I6000 T00281144 10028 21094 58046
Loading
Personal Weather Stations






























Interactive Weather Map New forecast layout! Learn more

10-Day Weather Forecast

Advertisements
Track Severe Weather on mobile